Neiva, Neiva Benito Salas Airport (SKNV)

NameNeiva Benito Salas Airport
CityNeiva
CountryColombia
ICAOSKNV
IATANVA
Altitude446 m
CoordinatesGoogle Map
Live Air TrafficLiveATC.net
METARSKNV 251700Z VRB04KT 9999 SCT035 SCT120 33/21 A2991
2020-04-25 17:00:00 Wind: North (0°) 2.06 m/s - Visibility: > 10000 m - Temperature: 33 °C - Dew point: 21 °C - Humidity: 49.3% - Pressure: 1012.87 hPa

Sorry, no flights used the airport in this database.